Time;durP1;ratioP1;P1;durP2;ratioP2;P2;SDS_P1;SDS_P2;PMS_P1;PMS_P2;Temp;Humidity;BMP_temperature;BMP_pressure;BME280_temperature;BME280_humidity;BME280_pressure;Samples;Min_cycle;Max_cycle;Signal;HPM_P1;HPM_P2
2022/01/12 19:07:31;;;;;;;88.63;31.43;;;;;;;0.16;100.00;102420.77;3618219;79;33247;-86
2022/01/12 19:17:37;;;;;;;94.90;31.05;;;;;;;0.25;100.00;102426.52;3611949;80;99369;-85
2022/01/12 19:22:48;;;;;;;92.47;31.80;;;;;;;0.27;100.00;102423.83;3612679;80;99043;-85
2022/01/12 19:27:49;;;;;;;96.67;31.67;;;;;;;0.31;100.00;102416.00;3630694;80;99536;-85
2022/01/12 19:32:50;;;;;;;89.40;31.33;;;;;;;0.34;100.00;102425.77;3713196;78;98996;-86
2022/01/12 19:37:51;;;;;;;93.60;31.80;;;;;;;0.36;100.00;102416.86;3757766;76;33293;-85
2022/01/12 19:42:56;;;;;;;94.17;31.77;;;;;;;0.39;100.00;102416.32;3752436;77;99056;-86
2022/01/12 19:48:05;;;;;;;96.13;30.07;;;;;;;0.42;100.00;102409.56;3771538;77;98463;-86
2022/01/12 19:53:34;;;;;;;96.63;30.20;;;;;;;0.46;100.00;102397.97;3755433;77;99154;-86
2022/01/12 19:59:07;;;;;;;86.07;28.03;;;;;;;0.48;100.00;102389.03;3765987;76;99548;-86
2022/01/12 20:04:14;;;;;;;138.83;42.37;;;;;;;0.50;100.00;102387.42;3755903;77;99119;-87
2022/01/12 20:09:26;;;;;;;92.87;28.57;;;;;;;0.56;100.00;102402.63;3722961;77;99521;-84
2022/01/12 20:14:28;;;;;;;67.60;21.70;;;;;;;0.58;100.00;102408.05;3675330;78;99150;-83
2022/01/12 20:25:00;;;;;;;47.10;16.57;;;;;;;0.62;100.00;102396.14;3640104;78;99004;-83
2022/01/12 20:30:03;;;;;;;49.77;17.27;;;;;;;0.65;100.00;102391.54;3633031;79;99285;-84
2022/01/12 20:35:09;;;;;;;50.70;19.10;;;;;;;0.65;100.00;102388.30;3659095;78;99483;-85
2022/01/12 20:40:11;;;;;;;46.23;16.80;;;;;;;0.68;100.00;102385.61;3640902;78;99677;-85
2022/01/12 20:45:13;;;;;;;38.50;14.77;;;;;;;0.69;100.00;102388.59;3638774;79;99362;-85
2022/01/12 20:50:14;;;;;;;37.27;13.87;;;;;;;0.70;100.00;102390.21;3634130;78;99294;-85
2022/01/12 20:55:15;;;;;;;40.13;16.27;;;;;;;0.69;100.00;102400.25;3659784;79;33233;-86
2022/01/12 21:00:16;;;;;;;40.73;19.47;;;;;;;0.73;100.00;102397.27;3645037;79;98889;-88
2022/01/12 21:05:17;;;;;;;43.33;17.43;;;;;;;0.74;100.00;102391.32;3643095;78;98589;-85
2022/01/12 21:10:18;;;;;;;40.83;19.40;;;;;;;0.73;100.00;102382.92;3641878;78;99277;-86
2022/01/12 21:15:20;;;;;;;41.87;17.40;;;;;;;0.73;100.00;102391.05;3640934;79;99368;-86
2022/01/12 21:20:21;;;;;;;41.97;17.07;;;;;;;0.72;100.00;102403.77;3630864;78;99432;-87
2022/01/12 21:25:22;;;;;;;35.70;12.53;;;;;;;0.73;100.00;102424.92;3623451;79;32785;-86
2022/01/12 21:30:23;;;;;;;33.10;14.27;;;;;;;0.71;100.00;102420.32;3633201;78;99168;-87
2022/01/12 21:35:33;;;;;;;34.00;13.90;;;;;;;0.67;100.00;102444.39;3636033;78;99086;-86
2022/01/12 21:40:38;;;;;;;33.73;14.30;;;;;;;0.65;100.00;102442.49;3627018;79;99467;-86
2022/01/12 21:45:40;;;;;;;35.50;15.13;;;;;;;0.63;100.00;102423.52;3637365;79;98993;-86
2022/01/12 21:50:41;;;;;;;39.27;16.10;;;;;;;0.60;100.00;102439.75;3637021;79;99434;-85
2022/01/12 21:55:42;;;;;;;40.80;19.47;;;;;;;0.60;100.00;102466.84;3644606;79;34388;-84
2022/01/12 22:00:43;;;;;;;42.27;18.20;;;;;;;0.63;100.00;102465.51;3640853;78;99357;-86
2022/01/12 22:05:44;;;;;;;40.40;17.30;;;;;;;0.63;100.00;102460.92;3634550;78;98905;-87
2022/01/12 22:10:45;;;;;;;41.73;16.60;;;;;;;0.65;100.00;102455.21;3602869;79;99197;-86
2022/01/12 22:15:46;;;;;;;40.10;15.57;;;;;;;0.64;100.00;102452.23;3608608;78;99054;-88
2022/01/12 22:20:49;;;;;;;35.27;14.20;;;;;;;0.60;100.00;102434.89;3629173;78;99369;-87
2022/01/12 22:25:53;;;;;;;37.10;14.00;;;;;;;0.56;100.00;102429.71;3643066;79;33191;-86
2022/01/12 22:30:54;;;;;;;51.20;20.40;;;;;;;0.54;100.00;102422.36;3635146;79;99127;-86
2022/01/12 22:35:55;;;;;;;36.13;17.47;;;;;;;0.56;100.00;102413.45;3647939;78;99359;-86
2022/01/12 22:40:56;;;;;;;40.93;19.07;;;;;;;0.55;100.00;102408.56;3643962;78;99463;-86
2022/01/12 22:45:57;;;;;;;47.78;18.80;;;;;;;0.57;100.00;102417.27;3643722;79;98972;-86
2022/01/12 22:51:00;;;;;;;43.33;16.83;;;;;;;0.56;100.00;102421.58;3602530;79;98798;-86
2022/01/12 22:56:01;;;;;;;42.40;16.77;;;;;;;0.54;100.00;102424.55;3643320;78;33164;-86
2022/01/12 23:01:02;;;;;;;48.03;18.80;;;;;;;0.57;100.00;102425.92;3636119;79;98962;-86
2022/01/12 23:06:04;;;;;;;41.43;14.57;;;;;;;0.57;100.00;102422.69;3647980;79;98916;-87
2022/01/12 23:11:05;;;;;;;37.77;15.37;;;;;;;0.59;100.00;102404.27;3636751;79;99094;-87
2022/01/12 23:16:06;;;;;;;41.13;15.70;;;;;;;0.61;100.00;102388.55;3656597;79;99324;-86
2022/01/12 23:21:09;;;;;;;33.97;13.13;;;;;;;0.62;100.00;102377.98;3662264;79;99315;-86
2022/01/12 23:26:11;;;;;;;36.17;16.03;;;;;;;0.63;100.00;102378.28;3665608;78;99130;-86
2022/01/12 23:31:12;;;;;;;33.80;15.30;;;;;;;0.66;100.00;102366.09;3665853;78;98983;-86
2022/01/12 23:52:40;;;;;;;36.77;15.27;;;;;;;0.73;100.00;102363.39;3660713;78;98867;-84
2022/01/12 23:57:33;;;;;;;39.17;15.20;;;;;;;0.74;100.00;102375.06;3678191;78;98687;-83
